createdAt,value
2017-12-12T00:00:35.059Z,70.12
2017-12-12T00:03:01.919Z,72.90
2017-12-12T00:05:28.730Z,60.47
2017-12-12T00:07:55.603Z,63.85
2017-12-12T00:10:22.457Z,60.80
2017-12-12T00:12:49.311Z,57.80
2017-12-12T00:15:16.417Z,62.75
2017-12-12T00:17:43.247Z,59.50
2017-12-12T00:20:10.303Z,59.60
2017-12-12T00:22:42.005Z,59.08
2017-12-12T00:25:08.801Z,59.97
2017-12-12T00:27:35.854Z,62.55
2017-12-12T00:30:02.703Z,61.58
2017-12-12T00:32:29.743Z,63.50
2017-12-12T00:34:56.789Z,63.55
2017-12-12T00:37:23.944Z,64.32
2017-12-12T00:39:50.759Z,61.70
2017-12-12T00:42:17.542Z,62.13
2017-12-12T00:44:44.675Z,62.42
2017-12-12T00:47:11.482Z,69.85
2017-12-12T00:49:38.277Z,66.90
2017-12-12T00:52:05.406Z,66.87
2017-12-12T00:54:32.205Z,69.93
2017-12-12T00:56:59.041Z,63.03
2017-12-12T00:59:26.142Z,57.25
2017-12-12T01:01:52.931Z,59.35
2017-12-12T01:04:20.040Z,57.97
2017-12-12T01:06:46.879Z,58.55
2017-12-12T01:09:13.668Z,60.45
2017-12-12T01:11:40.515Z,58.05
2017-12-12T01:14:07.359Z,56.10
2017-12-12T01:16:34.191Z,57.20
2017-12-12T01:19:01.019Z,58.50
2017-12-12T01:21:27.851Z,59.35
2017-12-12T01:23:54.638Z,58.67
2017-12-12T01:26:21.728Z,61.97
2017-12-12T01:28:48.576Z,61.45
2017-12-12T01:31:15.364Z,53.75
2017-12-12T01:33:42.457Z,56.65
2017-12-12T01:36:09.611Z,57.40
2017-12-12T01:38:36.444Z,63.45
2017-12-12T01:41:03.229Z,62.78
2017-12-12T01:43:30.087Z,56.22
2017-12-12T01:45:56.914Z,58.72
2017-12-12T01:48:23.726Z,56.78
2017-12-12T01:50:50.566Z,55.37
2017-12-12T01:53:17.372Z,55.17
2017-12-12T01:55:44.459Z,53.22
2017-12-12T01:58:11.306Z,52.47
2017-12-12T02:00:38.152Z,51.37
2017-12-12T02:03:04.979Z,50.35
2017-12-12T02:05:31.865Z,50.35
2017-12-12T02:07:58.656Z,51.88
2017-12-12T02:10:25.491Z,52.35
2017-12-12T02:12:52.331Z,49.20
2017-12-12T02:15:19.176Z,48.55
2017-12-12T02:17:45.987Z,53.17
2017-12-12T02:20:12.822Z,49.30
2017-12-12T02:22:39.658Z,51.45
2017-12-12T02:25:06.515Z,44.45
2017-12-12T02:27:33.365Z,47.27
2017-12-12T02:30:00.190Z,45.10
2017-12-12T02:32:27.040Z,40.28
2017-12-12T02:34:53.917Z,43.22
2017-12-12T02:37:20.994Z,40.17
2017-12-12T02:39:47.811Z,39.47
2017-12-12T02:42:14.654Z,40.33
2017-12-12T02:44:41.458Z,36.05
2017-12-12T02:47:08.321Z,37.97
2017-12-12T02:49:35.213Z,37.92
2017-12-12T02:52:02.064Z,39.33
2017-12-12T02:54:28.887Z,37.72
2017-12-12T02:56:55.734Z,39.85
2017-12-12T02:59:22.575Z,40.63
2017-12-12T03:01:49.384Z,35.33
2017-12-12T03:04:16.584Z,34.50
2017-12-12T03:06:43.389Z,36.60
2017-12-12T03:09:10.474Z,37.70
2017-12-12T03:11:37.617Z,32.42
2017-12-12T03:14:04.475Z,38.20
2017-12-12T03:16:31.281Z,38.33
2017-12-12T03:18:58.106Z,39.25
2017-12-12T03:21:24.918Z,40.88
2017-12-12T03:23:51.747Z,38.77
2017-12-12T03:26:18.887Z,39.45
2017-12-12T03:28:45.690Z,45.43
2017-12-12T03:31:12.522Z,40.65
2017-12-12T03:33:39.514Z,39.03
2017-12-12T03:36:06.317Z,39.55
2017-12-12T03:38:33.411Z,37.78
2017-12-12T03:41:00.283Z,37.70
2017-12-12T03:43:27.081Z,39.60
2017-12-12T03:45:54.143Z,35.10
2017-12-12T03:48:21.027Z,36.03
2017-12-12T03:50:47.878Z,33.92
2017-12-12T03:55:59.134Z,35.90
2017-12-12T03:58:26.020Z,38.75
2017-12-12T04:00:52.863Z,39.17
2017-12-12T04:03:19.755Z,38.78
2017-12-12T04:05:46.604Z,37.80
2017-12-12T04:08:13.468Z,36.63
2017-12-12T04:10:40.368Z,42.92
2017-12-12T04:13:07.548Z,39.28
2017-12-12T04:15:34.387Z,44.20
2017-12-12T04:18:01.280Z,40.13
2017-12-12T04:20:28.497Z,40.90
2017-12-12T04:22:55.343Z,39.67
2017-12-12T04:25:22.280Z,41.75
2017-12-12T04:27:49.148Z,46.42
2017-12-12T04:30:16.018Z,46.83
2017-12-12T04:32:42.929Z,44.28
2017-12-12T04:35:09.795Z,42.17
2017-12-12T04:37:36.643Z,45.13
2017-12-12T04:40:03.564Z,50.80
2017-12-12T04:42:30.444Z,54.67
2017-12-12T04:44:57.334Z,58.10
2017-12-12T04:47:24.183Z,54.08
2017-12-12T04:49:51.044Z,55.83
2017-12-12T04:52:17.917Z,62.88
2017-12-12T04:54:44.810Z,67.18
2017-12-12T04:57:11.646Z,76.55
2017-12-12T04:59:38.813Z,72.03
2017-12-12T05:02:05.688Z,79.45
2017-12-12T05:04:32.544Z,69.93
2017-12-12T05:06:59.408Z,72.40
2017-12-12T05:09:26.328Z,85.45
2017-12-12T05:11:53.212Z,83.00
2017-12-12T05:14:20.101Z,94.70
2017-12-12T05:16:47.316Z,108.78
2017-12-12T05:19:14.212Z,117.60
2017-12-12T05:21:41.307Z,127.77
2017-12-12T05:24:08.226Z,146.52
2017-12-12T05:26:35.126Z,143.43
2017-12-12T05:29:01.991Z,164.13
2017-12-12T05:31:28.905Z,179.63
2017-12-12T05:33:55.750Z,139.98
2017-12-12T05:36:22.610Z,120.20
2017-12-12T05:38:49.828Z,110.17
2017-12-12T05:41:16.707Z,132.48
2017-12-12T05:43:43.592Z,129.27
2017-12-12T05:46:10.500Z,131.10
2017-12-12T05:48:37.713Z,133.18
2017-12-12T05:51:04.678Z,113.55
2017-12-12T05:53:31.534Z,97.62
2017-12-12T05:55:58.756Z,87.80
2017-12-12T05:58:25.905Z,82.03
2017-12-12T06:00:53.052Z,76.22
2017-12-12T06:03:19.968Z,85.65
2017-12-12T06:05:46.868Z,80.07
2017-12-12T06:08:13.797Z,91.85
2017-12-12T06:10:40.659Z,79.82
2017-12-12T06:13:07.557Z,92.43
2017-12-12T06:15:34.725Z,100.35
2017-12-12T06:18:01.884Z,124.53
2017-12-12T06:20:28.768Z,93.65
2017-12-12T06:22:55.972Z,80.15
2017-12-12T06:25:23.125Z,78.65
2017-12-12T06:27:50.282Z,82.72
2017-12-12T06:30:17.425Z,75.20
2017-12-12T06:32:44.309Z,71.32
2017-12-12T06:35:11.196Z,88.57
2017-12-12T06:37:38.087Z,70.50
2017-12-12T06:40:04.970Z,75.70
2017-12-12T06:42:31.870Z,73.32
2017-12-12T06:44:59.101Z,80.60
2017-12-12T06:47:26.247Z,61.92
2017-12-12T06:49:53.095Z,66.47
2017-12-12T06:52:20.017Z,57.60
2017-12-12T06:54:46.870Z,47.20
2017-12-12T06:57:13.729Z,54.22
2017-12-12T06:59:40.623Z,52.13
2017-12-12T07:02:11.264Z,56.90
2017-12-12T07:04:38.091Z,56.65
2017-12-12T07:07:05.041Z,50.42
2017-12-12T07:09:31.922Z,48.42
2017-12-12T07:11:59.084Z,38.38
2017-12-12T07:14:26.235Z,47.40
2017-12-12T07:16:53.051Z,46.30
2017-12-12T07:19:19.940Z,40.10
2017-12-12T07:21:46.830Z,46.45
2017-12-12T07:24:14.015Z,48.35
2017-12-12T07:26:40.900Z,35.17
2017-12-12T07:29:07.738Z,36.80
2017-12-12T07:31:34.847Z,34.55
2017-12-12T07:34:01.999Z,34.72
2017-12-12T07:36:29.929Z,33.10
2017-12-12T07:38:57.015Z,35.53
2017-12-12T07:41:24.524Z,33.22
2017-12-12T07:43:51.361Z,28.25
2017-12-12T07:46:18.469Z,30.02
2017-12-12T07:48:45.318Z,29.37
2017-12-12T07:51:12.464Z,26.00
2017-12-12T07:53:39.312Z,28.30
2017-12-12T07:56:06.152Z,31.67
2017-12-12T07:58:33.299Z,30.73
2017-12-12T08:01:00.153Z,27.83
2017-12-12T08:03:27.019Z,27.58
2017-12-12T08:05:53.883Z,31.52
2017-12-12T08:08:20.751Z,31.15
2017-12-12T08:10:47.635Z,25.88
2017-12-12T08:13:14.552Z,28.73
2017-12-12T08:15:41.720Z,25.20
2017-12-12T08:18:08.863Z,26.55
2017-12-12T08:20:36.011Z,28.02
2017-12-12T08:23:02.854Z,30.98
2017-12-12T08:25:29.722Z,23.38
2017-12-12T08:27:56.629Z,26.08
2017-12-12T08:30:23.800Z,25.23
2017-12-12T08:32:50.666Z,28.12
2017-12-12T08:35:17.792Z,28.35
2017-12-12T08:37:44.615Z,29.27
2017-12-12T08:40:11.453Z,29.48
2017-12-12T08:42:38.325Z,26.17
2017-12-12T08:45:05.151Z,25.67
2017-12-12T08:47:31.991Z,27.92
2017-12-12T08:49:58.887Z,36.30
2017-12-12T08:52:25.774Z,27.20
2017-12-12T08:54:52.608Z,27.87
2017-12-12T08:57:19.787Z,31.25
2017-12-12T08:59:46.945Z,30.55
2017-12-12T09:02:13.824Z,31.65
2017-12-12T09:04:40.709Z,32.53
2017-12-12T09:07:07.523Z,36.22
2017-12-12T09:09:34.374Z,41.22
2017-12-12T09:12:01.459Z,36.53
2017-12-12T09:14:28.617Z,45.17
2017-12-12T09:16:55.435Z,42.17
2017-12-12T09:19:22.312Z,41.37
2017-12-12T09:21:49.163Z,41.00
2017-12-12T09:24:16.298Z,43.33
2017-12-12T09:26:43.190Z,44.13
2017-12-12T09:29:10.283Z,41.90
2017-12-12T09:31:37.123Z,37.10
2017-12-12T09:34:03.972Z,41.22
2017-12-12T09:36:30.839Z,39.13
2017-12-12T09:38:57.967Z,39.05
2017-12-12T09:41:24.933Z,42.22
2017-12-12T09:43:52.169Z,34.92
2017-12-12T09:46:18.985Z,35.88
2017-12-12T09:48:45.856Z,30.62
2017-12-12T09:51:12.728Z,34.97
2017-12-12T09:53:39.632Z,35.83
2017-12-12T09:56:06.791Z,33.15
2017-12-12T09:58:33.656Z,38.08
2017-12-12T10:01:00.785Z,37.87
2017-12-12T10:03:27.671Z,41.08
2017-12-12T10:05:54.514Z,42.10
2017-12-12T10:08:21.378Z,38.08
2017-12-12T10:10:48.243Z,39.92
2017-12-12T10:13:15.101Z,42.97
2017-12-12T10:15:42.251Z,38.70
2017-12-12T10:18:09.175Z,38.85
2017-12-12T10:20:36.015Z,36.72
2017-12-12T10:23:02.893Z,37.13
2017-12-12T10:25:30.035Z,33.80
2017-12-12T10:27:56.894Z,36.25
2017-12-12T10:30:23.715Z,36.22
2017-12-12T10:32:50.612Z,51.30
2017-12-12T10:35:17.450Z,35.75
2017-12-12T10:37:44.560Z,37.67
2017-12-12T10:40:11.438Z,36.38
2017-12-12T10:42:38.337Z,34.80
2017-12-12T10:45:05.183Z,34.47
2017-12-12T10:47:32.046Z,34.13
2017-12-12T10:49:58.940Z,31.75
2017-12-12T10:52:26.134Z,32.90
2017-12-12T10:54:53.004Z,33.33
2017-12-12T10:57:20.229Z,36.42
2017-12-12T10:59:47.371Z,34.83
2017-12-12T11:02:14.529Z,37.90
2017-12-12T11:04:41.672Z,36.90
2017-12-12T11:07:08.544Z,34.30
2017-12-12T11:09:35.463Z,34.88
2017-12-12T11:12:02.320Z,33.90
2017-12-12T11:14:29.140Z,33.72
2017-12-12T11:16:56.308Z,33.47
2017-12-12T11:19:23.556Z,34.22
2017-12-12T11:21:50.424Z,35.50
2017-12-12T11:24:17.544Z,34.65
2017-12-12T11:26:44.457Z,35.95
2017-12-12T11:29:11.333Z,34.33
2017-12-12T11:31:38.488Z,35.08
2017-12-12T11:34:05.315Z,36.42
2017-12-12T11:36:32.584Z,35.78
2017-12-12T11:38:59.465Z,35.40
2017-12-12T11:41:26.345Z,35.95
2017-12-12T11:43:53.196Z,39.78
2017-12-12T11:46:20.039Z,38.50
2017-12-12T11:48:47.212Z,44.72
2017-12-12T11:51:14.103Z,39.85
2017-12-12T11:53:41.005Z,39.65
2017-12-12T11:56:07.871Z,40.65
2017-12-12T11:58:34.992Z,43.87
2017-12-12T12:01:01.843Z,50.78
2017-12-12T12:03:28.984Z,47.80
2017-12-12T12:05:55.832Z,45.47
2017-12-12T12:08:22.713Z,49.20
2017-12-12T12:10:49.636Z,47.03
2017-12-12T12:13:16.772Z,47.85
2017-12-12T12:15:43.913Z,43.65
2017-12-12T12:18:11.063Z,42.57
2017-12-12T12:20:37.952Z,38.97
2017-12-12T12:23:05.160Z,38.60
2017-12-12T12:25:32.307Z,34.80
2017-12-12T12:27:59.235Z,32.80
2017-12-12T12:30:26.412Z,32.13
2017-12-12T12:32:53.297Z,31.70
2017-12-12T12:35:20.182Z,32.03
2017-12-12T12:37:47.102Z,35.25
2017-12-12T12:40:14.291Z,34.42
2017-12-12T12:42:41.203Z,34.38
2017-12-12T12:45:08.134Z,27.37
2017-12-12T12:47:35.237Z,27.40
2017-12-12T12:50:02.101Z,31.53
2017-12-12T12:52:28.976Z,24.27
2017-12-12T12:54:56.173Z,25.73
2017-12-12T12:57:23.319Z,25.85
2017-12-12T12:59:50.240Z,24.05
2017-12-12T13:02:17.418Z,27.55
2017-12-12T13:04:44.231Z,25.30
2017-12-12T13:07:11.412Z,26.02
2017-12-12T13:09:38.264Z,23.73
2017-12-12T13:12:05.406Z,22.40
2017-12-12T13:14:32.558Z,22.05
2017-12-12T13:16:59.699Z,22.70
2017-12-12T13:19:26.543Z,24.63
2017-12-12T13:21:53.441Z,22.08
2017-12-12T13:24:20.540Z,22.37
2017-12-12T13:26:47.693Z,23.50
2017-12-12T13:29:14.562Z,23.40
2017-12-12T13:31:41.377Z,26.90
2017-12-12T13:34:08.245Z,24.75
2017-12-12T13:36:35.116Z,24.45
2017-12-12T13:39:02.316Z,23.83
2017-12-12T13:41:29.471Z,23.90
2017-12-12T13:43:57.263Z,22.30
2017-12-12T13:46:24.095Z,24.65
2017-12-12T13:48:51.194Z,23.98
2017-12-12T13:51:18.376Z,25.70
2017-12-12T13:53:45.247Z,24.95
2017-12-12T13:56:12.059Z,24.55
2017-12-12T13:58:38.903Z,23.15
2017-12-12T14:01:05.716Z,22.20
2017-12-12T14:03:32.575Z,22.85
2017-12-12T14:05:59.492Z,24.30
2017-12-12T14:08:26.307Z,23.65
2017-12-12T14:10:53.123Z,24.83
2017-12-12T14:13:20.270Z,24.15
2017-12-12T14:15:47.108Z,24.48
2017-12-12T14:18:13.985Z,24.65
2017-12-12T14:20:40.838Z,24.25
2017-12-12T14:23:07.681Z,25.10
2017-12-12T14:25:34.791Z,24.87
2017-12-12T14:28:01.871Z,23.48
2017-12-12T14:30:28.695Z,24.05
2017-12-12T14:32:55.522Z,25.40
2017-12-12T14:35:22.393Z,26.35
2017-12-12T14:37:49.244Z,27.65
2017-12-12T14:40:16.075Z,25.05
2017-12-12T14:42:42.931Z,24.73
2017-12-12T14:45:09.804Z,26.33
2017-12-12T14:47:36.644Z,25.27
2017-12-12T14:50:03.845Z,25.42
2017-12-12T14:52:30.990Z,26.25
2017-12-12T14:54:57.811Z,27.85
2017-12-12T14:57:24.983Z,25.55
2017-12-12T14:59:51.836Z,26.55
2017-12-12T15:02:18.671Z,26.20
2017-12-12T15:04:45.548Z,24.20
2017-12-12T15:07:12.417Z,26.17
2017-12-12T15:09:39.276Z,28.45
2017-12-12T15:12:06.127Z,24.55
2017-12-12T15:14:32.985Z,25.17
2017-12-12T15:16:59.855Z,26.55
2017-12-12T15:19:26.735Z,25.02
2017-12-12T15:21:53.590Z,30.50
2017-12-12T15:24:20.419Z,25.50
2017-12-12T15:26:47.611Z,28.35
2017-12-12T15:29:14.436Z,28.52
2017-12-12T15:31:41.301Z,29.17
2017-12-12T15:34:08.448Z,27.48
2017-12-12T15:36:35.269Z,29.50
2017-12-12T15:39:02.197Z,29.90
2017-12-12T15:41:29.157Z,29.87
2017-12-12T15:43:56.435Z,26.75
2017-12-12T15:46:23.591Z,28.40
2017-12-12T15:48:50.742Z,31.48
2017-12-12T15:51:17.825Z,28.65
2017-12-12T15:53:44.700Z,34.00
2017-12-12T15:56:11.885Z,33.38
2017-12-12T15:58:38.711Z,28.90
2017-12-12T16:01:05.981Z,25.60
2017-12-12T16:03:32.876Z,30.65
2017-12-12T16:05:59.999Z,36.22
2017-12-12T16:08:26.828Z,32.03
2017-12-12T16:10:53.965Z,32.35
2017-12-12T16:13:21.112Z,30.40
2017-12-12T16:15:48.263Z,33.20
2017-12-12T16:18:15.178Z,31.10
2017-12-12T16:20:42.037Z,29.85
2017-12-12T16:23:08.859Z,30.23
2017-12-12T16:25:36.053Z,27.33
2017-12-12T16:28:02.932Z,28.65
2017-12-12T16:30:29.760Z,26.62
2017-12-12T16:32:56.892Z,27.30
2017-12-12T16:35:24.045Z,29.67
2017-12-12T16:37:50.891Z,29.45
2017-12-12T16:40:17.825Z,31.60
2017-12-12T16:42:44.667Z,34.83
2017-12-12T16:45:11.493Z,28.40
2017-12-12T16:47:38.359Z,35.85
2017-12-12T16:50:05.510Z,27.85
2017-12-12T16:52:32.360Z,31.25
2017-12-12T16:54:59.279Z,32.13
2017-12-12T16:57:26.451Z,37.10
2017-12-12T16:59:53.596Z,28.92
2017-12-12T17:02:20.844Z,31.30
2017-12-12T17:04:47.708Z,31.85
2017-12-12T17:07:14.515Z,34.40
2017-12-12T17:09:41.393Z,31.85
2017-12-12T17:12:08.539Z,38.75
2017-12-12T17:14:35.397Z,32.60
2017-12-12T17:17:02.252Z,32.97
2017-12-12T17:19:29.359Z,33.67
2017-12-12T17:21:56.216Z,32.08
2017-12-12T17:24:23.062Z,34.40
2017-12-12T17:26:50.200Z,34.63
2017-12-12T17:29:17.347Z,29.10
2017-12-12T17:31:44.192Z,31.08
2017-12-12T17:34:11.052Z,29.83
2017-12-12T17:36:38.184Z,31.27
2017-12-12T17:39:05.089Z,31.92
2017-12-12T17:41:31.920Z,38.17
2017-12-12T17:43:58.764Z,39.40
2017-12-12T17:46:25.639Z,43.92
2017-12-12T17:48:52.807Z,40.88
2017-12-12T17:51:19.664Z,44.47
2017-12-12T17:53:46.523Z,40.97
2017-12-12T17:56:13.376Z,41.47
2017-12-12T17:58:40.285Z,40.15
2017-12-12T18:01:07.441Z,40.30
2017-12-12T18:03:34.296Z,43.92
2017-12-12T18:06:01.160Z,46.92
2017-12-12T18:08:28.033Z,47.00
2017-12-12T18:10:55.121Z,42.85
2017-12-12T18:13:21.947Z,41.40
2017-12-12T18:15:48.829Z,41.50
2017-12-12T18:18:15.684Z,37.17
2017-12-12T18:20:42.800Z,37.20
2017-12-12T18:23:09.651Z,39.60
2017-12-12T18:25:36.504Z,36.90
2017-12-12T18:28:03.319Z,37.00
2017-12-12T18:30:30.196Z,39.10
2017-12-12T18:32:57.318Z,43.30
2017-12-12T18:35:24.135Z,39.92
2017-12-12T18:37:51.004Z,52.78
2017-12-12T18:40:17.827Z,41.88
2017-12-12T18:42:44.684Z,36.38
2017-12-12T18:45:11.537Z,36.50
2017-12-12T18:47:38.359Z,31.37
2017-12-12T18:50:05.187Z,37.47
2017-12-12T18:52:32.367Z,39.35
2017-12-12T18:54:59.235Z,34.50
2017-12-12T18:57:26.056Z,37.43
2017-12-12T18:59:53.215Z,37.85
2017-12-12T19:02:20.071Z,33.30
2017-12-12T19:04:46.925Z,36.42
2017-12-12T19:07:14.050Z,41.63
2017-12-12T19:09:40.903Z,44.35
2017-12-12T19:12:07.735Z,39.00
2017-12-12T19:14:34.637Z,39.03
2017-12-12T19:17:01.488Z,40.97
2017-12-12T19:19:28.360Z,39.83
2017-12-12T19:21:55.521Z,42.60
2017-12-12T19:24:22.678Z,45.05
2017-12-12T19:26:49.545Z,45.12
2017-12-12T19:29:16.662Z,46.63
2017-12-12T19:31:43.808Z,54.60
2017-12-12T19:34:10.965Z,44.35
2017-12-12T19:36:37.858Z,46.13
2017-12-12T19:39:05.057Z,49.15
2017-12-12T19:41:31.879Z,48.00
2017-12-12T19:43:59.051Z,49.15
2017-12-12T19:46:25.900Z,42.47
2017-12-12T19:48:53.039Z,47.85
2017-12-12T19:51:20.191Z,48.20
2017-12-12T19:53:47.346Z,46.70
2017-12-12T19:56:14.245Z,48.73
2017-12-12T19:58:41.129Z,43.67
2017-12-12T20:01:07.951Z,43.72
2017-12-12T20:03:34.779Z,50.30
2017-12-12T20:06:01.674Z,47.50
2017-12-12T20:08:28.813Z,49.05
2017-12-12T20:10:55.651Z,48.55
2017-12-12T20:13:22.510Z,44.55
2017-12-12T20:15:49.396Z,43.40
2017-12-12T20:18:16.596Z,43.65
2017-12-12T20:20:43.744Z,43.35
2017-12-12T20:23:10.589Z,49.87
2017-12-12T20:25:37.411Z,47.08
2017-12-12T20:28:04.584Z,47.20
2017-12-12T20:30:31.429Z,49.78
2017-12-12T20:32:58.575Z,51.47
2017-12-12T20:35:25.728Z,49.13
2017-12-12T20:37:52.586Z,46.35
2017-12-12T20:40:19.825Z,58.08
2017-12-12T20:42:46.673Z,55.67
2017-12-12T20:45:13.487Z,51.40
2017-12-12T20:47:40.334Z,43.13
2017-12-12T20:50:07.209Z,42.72
2017-12-12T20:52:34.035Z,54.30
2017-12-12T20:55:00.901Z,43.53
2017-12-12T20:57:27.776Z,47.10
2017-12-12T20:59:54.982Z,43.90
2017-12-12T21:02:22.124Z,48.13
2017-12-12T21:04:49.013Z,42.92
2017-12-12T21:07:15.880Z,35.38
2017-12-12T21:09:42.756Z,38.28
2017-12-12T21:12:09.670Z,43.35
2017-12-12T21:14:36.503Z,36.25
2017-12-12T21:17:03.343Z,42.15
2017-12-12T21:19:30.541Z,39.42
2017-12-12T21:21:57.409Z,34.97
2017-12-12T21:24:24.280Z,43.13
2017-12-12T21:26:51.153Z,42.95
2017-12-12T21:29:18.012Z,44.50
2017-12-12T21:31:44.859Z,40.15
2017-12-12T21:34:11.711Z,36.72
2017-12-12T21:36:38.555Z,38.75
2017-12-12T21:39:05.697Z,37.63
2017-12-12T21:41:32.849Z,36.33
2017-12-12T21:43:59.997Z,48.03
2017-12-12T21:46:26.868Z,35.40
2017-12-12T21:48:53.760Z,48.83
2017-12-12T21:51:20.621Z,41.30
2017-12-12T21:53:47.485Z,39.78
2017-12-12T21:56:14.615Z,41.60
2017-12-12T21:58:41.451Z,41.28
2017-12-12T22:01:08.291Z,44.83
2017-12-12T22:03:35.568Z,37.75
2017-12-12T22:06:02.469Z,42.90
2017-12-12T22:08:29.305Z,44.30
2017-12-12T22:10:56.500Z,43.25
2017-12-12T22:13:23.648Z,44.40
2017-12-12T22:15:50.483Z,44.78
2017-12-12T22:18:17.364Z,41.05
2017-12-12T22:20:44.228Z,41.55
2017-12-12T22:23:11.101Z,38.28
2017-12-12T22:25:38.276Z,43.75
2017-12-12T22:28:05.418Z,39.83
2017-12-12T22:30:32.577Z,42.57
2017-12-12T22:32:59.529Z,47.20
2017-12-12T22:35:26.356Z,47.38
2017-12-12T22:37:53.517Z,47.33
2017-12-12T22:40:20.372Z,44.60
2017-12-12T22:42:47.232Z,45.80
2017-12-12T22:45:14.068Z,46.53
2017-12-12T22:47:41.191Z,46.00
2017-12-12T22:50:08.060Z,43.20
2017-12-12T22:52:34.913Z,46.50
2017-12-12T22:55:01.789Z,45.45
2017-12-12T22:57:28.871Z,50.10
2017-12-12T22:59:56.029Z,49.55
2017-12-12T23:02:23.170Z,49.03
2017-12-12T23:04:50.051Z,48.65
2017-12-12T23:07:17.167Z,46.42
2017-12-12T23:09:44.324Z,40.78
2017-12-12T23:12:11.151Z,38.80
2017-12-12T23:14:38.004Z,42.25
2017-12-12T23:17:05.210Z,43.58
2017-12-12T23:19:32.027Z,43.42
2017-12-12T23:21:58.845Z,42.47
2017-12-12T23:24:25.734Z,40.95
2017-12-12T23:26:52.607Z,34.63
2017-12-12T23:29:19.420Z,37.33
2017-12-12T23:31:46.295Z,38.67
2017-12-12T23:34:13.148Z,41.80
2017-12-12T23:36:39.964Z,33.22
2017-12-12T23:39:06.843Z,35.78
2017-12-12T23:41:33.700Z,41.40
2017-12-12T23:44:00.556Z,32.67
2017-12-12T23:46:27.442Z,35.53
2017-12-12T23:48:54.271Z,34.47
2017-12-12T23:51:21.315Z,30.27
2017-12-12T23:53:48.158Z,31.85
2017-12-12T23:56:14.992Z,34.17
2017-12-12T23:58:41.821Z,31.30
